The Terminator
24 Feb 2019

     
Click on your name for more detailed race data

Page 1 of 8 (380 items)
PosBib NoNameGun TimeChip TimeCategoryCat PosGenderGen PosClubPace
27794Philip DAY2:18:27.42:17:59.1MVet4082Male205ABBEY FLYERS 5.2 m/hr
29369Michael STONE1:33:27.31:33:24.2Msen16Male28ANDOVER AC 7.7 m/hr
1098Michael ANSTEY1:48:27.01:48:19.3Msen45Male100ARMADILLOS 6.6 m/hr
2523Stuart BAXTER1:32:14.11:32:11.2Msen13Male25ARMY HQ 7.8 m/hr
73334Jacqueline ROCKLIFFE1:41:41.01:41:36.2FVet452Female7AVON VALLEY RUNNERS 7.1 m/hr
106268Richard MORGETROYD1:47:58.81:47:44.5MVet4036Male97AVON VALLEY RUNNERS 6.7 m/hr
16165Alan BUTTON1:57:10.41:57:06.3MVet4052Male137AVON VALLEY RUNNERS 6.1 m/hr
222198Sarah JEWERS2:05:09.32:04:54.8FVet4516Female51AVON VALLEY RUNNERS 5.8 m/hr
256349Peter SHAW2:13:33.42:13:08.4MVet4078Male194AVON VALLEY RUNNERS 5.4 m/hr
265140Fiona GIBBS2:15:50.82:15:22.5FVet4522Female66AVON VALLEY RUNNERS 5.3 m/hr
360235Justine MACALISTER2:46:51.82:46:25.3FVet4539Female119AVON VALLEY RUNNERS 4.3 m/hr
36211Chris ASHTON2:49:59.22:49:29.3MVet5056Male243AVON VALLEY RUNNERS 4.2 m/hr
3797Carrie ALMEIDA3:18:18.53:17:49.8FVet605Female130AVON VALLEY RUNNERS 3.6 m/hr
47175Laurence HEWETSON1:36:47.91:36:46.4MVet4015Male44BAD TRI 7.4 m/hr
140366Michael STOBBS1:53:20.41:53:07.6MVet4047Male124BARNES RUNNERS 6.4 m/hr
311171Roger HEATH2:28:27.62:27:58.6MVet5046Male222BERKSHIRE ORIENTEERS 4.8 m/hr
86153Graham GROUT1:44:19.41:44:08.6MVet604Male79BRISTOL AND WEST AC 6.9 m/hr
147370Jonathan STRANGE1:54:34.71:54:15.0Msen55Male129BRITISH ARMY 6.3 m/hr
269135David FRIEND2:16:37.52:16:11.6MVet5037Male201BURGHFIELD RUNNING CLUB 5.3 m/hr
48412Matthew WAITE1:36:49.81:36:48.9MVet4016Male45CALNE RUNNING CLUB 7.4 m/hr
375269Alison MORRISON3:12:13.13:11:47.2FVet4544Female127CALNE RUNNING CLUB 3.7 m/hr
3275Paul MURRIN1:23:31.31:23:31.2MVet402Male3CHEPSTOW HARRIERS 8.6 m/hr
23313Robert PRITCHARD1:32:07.81:32:07.1Msen12Male23CHEPSTOW HARRIERS 7.8 m/hr
33189Dickie HUDD1:34:08.31:34:07.7MVet4011Male32CHEPSTOW HARRIERS 7.6 m/hr
39100Paul DODD1:36:01.51:36:01.2MVet601Male37CHEPSTOW HARRIERS 7.5 m/hr
51267Niki MORGAN1:37:08.31:37:06.1FVet451Female4CHEPSTOW HARRIERS 7.4 m/hr
6034Rob BEVES1:39:20.31:39:17.3MVet507Male56CHEPSTOW HARRIERS 7.2 m/hr
68288Stephen OWEN1:40:51.01:40:51.0MVet603Male62CHEPSTOW HARRIERS 7.1 m/hr
97143Jamie GODDARD1:46:33.41:46:31.1MVet4033Male89CHEPSTOW HARRIERS 6.8 m/hr
116197Lisa JEFFREY1:49:28.01:49:24.0FVet453Female11CHEPSTOW HARRIERS 6.6 m/hr
55James BROWNDNFDNFMsenMaleCHEPSTOW HARRIERS
36401Jeffrey TRYBUS1:34:58.71:34:56.0Msen20Male35CHERWELL RUNNERS 7.6 m/hr
133421Louis WARDEN1:52:04.11:51:49.5Msen52Male120CHESTERTON TRAIL RUNNERS 6.4 m/hr
159117Emilie FIDLER1:56:57.41:56:39.1FVet3512Female24CHESTERTON TRAIL RUNNERS 6.2 m/hr
352363Noel SPILKER2:43:53.22:43:35.2MVet4091Male238CHESTERTON TRAIL RUNNERS 4.4 m/hr
353227Lizzi LEACH2:43:53.42:43:36.0FSen22Female115CHESTERTON TRAIL RUNNERS 4.4 m/hr
356285Julie OSBORNE2:45:13.32:44:55.0FVet4538Female117CHESTERTON TRAIL RUNNERS 4.4 m/hr
357201Emma JOHNSON2:45:13.52:44:53.7FVet3547Female118CHESTERTON TRAIL RUNNERS 4.4 m/hr
358199Andy JOHNSON2:45:14.02:44:56.3MVet702Male240CHESTERTON TRAIL RUNNERS 4.4 m/hr
359286Timmy OSBORNE2:45:14.52:44:55.5MVet4092Male241CHESTERTON TRAIL RUNNERS 4.4 m/hr
2289Stuart PADGET1:21:46.41:21:45.0MVet401Male2CHIPPENHAM HARRIERS 8.8 m/hr
915Edward BAILEY1:26:32.31:26:31.0Msen4Male9CHIPPENHAM HARRIERS 8.3 m/hr
53298Neil PERRY1:37:20.61:37:18.5Msen26Male49CHIPPENHAM HARRIERS 7.4 m/hr
130108Adam EDWARDS1:51:51.31:51:39.3MVet4043Male117CHIPPENHAM HARRIERS 6.4 m/hr
173239Julia MADDOCKS1:58:29.11:58:18.2FVet458Female31CHIPPENHAM HARRIERS 6.1 m/hr
372221Liz LAIRD3:06:13.93:05:49.3FVet4543Female125CHIPPENHAM HARRIERS 3.9 m/hr
373272Kirsty-Ann MURPHY3:06:14.13:05:49.5FVet3549Female126CHIPPENHAM HARRIERS 3.9 m/hr
76215Dan KEMP1:42:14.41:42:10.4MVet4024Male69CHIPPENHAM TRI 7.0 m/hr
2973Lisa ADAMS2:24:37.22:24:20.7FVet3531Female82CHIPPENHAM TRI 5.0 m/hr
2965Mark ADAMS2:24:37.22:24:20.8Msen72Male215CHIPPENHAM TRI 5.0 m/hr
Page 1 of 8 (380 items)
   

fb